createdAt,value
2018-04-24T00:02:26.774Z,10.20
2018-04-24T00:04:54.349Z,10.20
2018-04-24T00:07:21.942Z,10.20
2018-04-24T00:09:50.218Z,10.20
2018-04-24T00:12:18.773Z,10.20
2018-04-24T00:14:46.308Z,10.20
2018-04-24T00:17:14.603Z,10.10
2018-04-24T00:19:42.139Z,10.10
2018-04-24T00:22:09.714Z,10.00
2018-04-24T00:24:37.307Z,10.10
2018-04-24T00:27:05.644Z,9.90
2018-04-24T00:29:33.492Z,9.90
2018-04-24T00:32:01.075Z,9.80
2018-04-24T00:34:28.689Z,9.70
2018-04-24T00:36:56.217Z,9.70
2018-04-24T00:39:23.781Z,9.70
2018-04-24T00:41:51.484Z,9.70
2018-04-24T00:44:19.051Z,9.70
2018-04-24T00:46:46.687Z,9.70
2018-04-24T00:49:15.095Z,9.60
2018-04-24T00:51:42.645Z,9.60
2018-04-24T00:54:10.192Z,9.60
2018-04-24T00:56:37.746Z,9.60
2018-04-24T00:59:05.249Z,9.50
2018-04-24T01:01:32.777Z,9.50
2018-04-24T01:04:00.612Z,9.40
2018-04-24T01:06:28.967Z,9.20
2018-04-24T01:08:56.544Z,9.20
2018-04-24T01:11:24.079Z,9.10
2018-04-24T01:13:51.639Z,9.20
2018-04-24T01:16:19.189Z,9.20
2018-04-24T01:18:46.724Z,9.10
2018-04-24T01:21:14.380Z,9.10
2018-04-24T01:23:41.947Z,9.10
2018-04-24T01:26:09.528Z,9.10
2018-04-24T01:28:37.073Z,9.00
2018-04-24T01:31:04.604Z,9.00
2018-04-24T01:33:32.155Z,9.10
2018-04-24T01:35:59.732Z,9.00
2018-04-24T01:38:27.307Z,9.00
2018-04-24T01:40:54.833Z,8.90
2018-04-24T01:43:22.403Z,8.90
2018-04-24T01:45:49.952Z,9.00
2018-04-24T01:48:18.287Z,9.00
2018-04-24T01:50:46.096Z,8.90
2018-04-24T01:53:13.676Z,9.00
2018-04-24T01:55:41.236Z,8.90
2018-04-24T01:58:08.796Z,8.90
2018-04-24T02:00:36.388Z,8.90
2018-04-24T02:03:03.997Z,9.00
2018-04-24T02:05:32.352Z,8.90
2018-04-24T02:07:59.967Z,8.90
2018-04-24T02:10:27.561Z,8.90
2018-04-24T02:12:55.157Z,8.80
2018-04-24T02:15:22.752Z,8.80
2018-04-24T02:17:50.327Z,8.80
2018-04-24T02:20:17.903Z,8.80
2018-04-24T02:22:45.456Z,8.80
2018-04-24T02:25:13.013Z,8.70
2018-04-24T02:27:40.608Z,8.70
2018-04-24T02:30:08.204Z,8.70
2018-04-24T02:32:36.579Z,8.70
2018-04-24T02:35:04.133Z,8.70
2018-04-24T02:37:31.727Z,8.70
2018-04-24T02:39:59.223Z,8.60
2018-04-24T02:42:27.599Z,8.70
2018-04-24T02:44:55.892Z,8.60
2018-04-24T02:47:24.248Z,8.60
2018-04-24T02:49:51.804Z,8.60
2018-04-24T02:52:19.400Z,8.60
2018-04-24T02:54:47.023Z,8.50
2018-04-24T02:57:14.609Z,8.50
2018-04-24T02:59:42.144Z,8.50
2018-04-24T03:02:10.448Z,8.40
2018-04-24T03:04:38.038Z,8.40
2018-04-24T03:07:05.600Z,8.40
2018-04-24T03:09:33.195Z,8.40
2018-04-24T03:12:00.740Z,8.40
2018-04-24T03:14:28.315Z,8.40
2018-04-24T03:16:56.297Z,8.40
2018-04-24T03:19:23.908Z,8.40
2018-04-24T03:21:51.459Z,8.40
2018-04-24T03:24:19.023Z,8.40
2018-04-24T03:26:46.569Z,8.40
2018-04-24T03:29:14.876Z,8.40
2018-04-24T03:31:42.406Z,8.40
2018-04-24T03:34:09.956Z,8.40
2018-04-24T03:36:37.492Z,8.40
2018-04-24T03:39:05.946Z,8.40
2018-04-24T03:41:33.601Z,8.40
2018-04-24T03:44:01.217Z,8.50
2018-04-24T03:46:28.776Z,8.40
2018-04-24T03:48:56.326Z,8.40
2018-04-24T03:51:23.882Z,8.50
2018-04-24T03:53:51.456Z,8.50
2018-04-24T03:56:19.033Z,8.50
2018-04-24T03:58:46.609Z,8.40
2018-04-24T04:01:14.262Z,8.50
2018-04-24T04:03:42.037Z,8.40
2018-04-24T04:12:02.561Z,8.40
2018-04-24T04:14:31.659Z,8.40
2018-04-24T04:16:59.480Z,8.40
2018-04-24T04:19:39.126Z,8.50
2018-04-24T04:22:19.541Z,8.50
2018-04-24T04:24:48.040Z,8.50
2018-04-24T04:27:15.613Z,8.60
2018-04-24T04:29:44.284Z,8.60
2018-04-24T04:32:12.176Z,8.60
2018-04-24T04:34:39.760Z,8.70
2018-04-24T04:37:07.305Z,8.80
2018-04-24T04:39:34.878Z,8.90
2018-04-24T04:42:02.472Z,8.90
2018-04-24T04:44:30.051Z,9.00
2018-04-24T04:46:57.571Z,9.10
2018-04-24T04:49:25.527Z,9.10
2018-04-24T04:51:53.241Z,9.20
2018-04-24T04:54:21.796Z,9.30
2018-04-24T04:56:59.421Z,9.30
2018-04-24T04:59:27.006Z,9.40
2018-04-24T05:01:54.562Z,9.50
2018-04-24T05:04:22.151Z,9.50
2018-04-24T05:06:50.493Z,9.60
2018-04-24T05:09:18.130Z,9.60
2018-04-24T05:11:46.529Z,9.80
2018-04-24T05:14:14.173Z,9.70
2018-04-24T05:16:42.501Z,10.00
2018-04-24T05:19:10.162Z,9.90
2018-04-24T05:21:37.724Z,10.00
2018-04-24T05:24:06.123Z,10.10
2018-04-24T05:26:34.513Z,10.10
2018-04-24T05:29:02.839Z,10.20
2018-04-24T05:31:30.393Z,10.20
2018-04-24T05:33:57.934Z,10.20
2018-04-24T05:36:25.463Z,10.30
2018-04-24T05:38:53.208Z,10.30
2018-04-24T05:41:20.785Z,10.40
2018-04-24T05:43:48.405Z,10.50
2018-04-24T05:46:16.123Z,10.60
2018-04-24T05:48:43.684Z,10.80
2018-04-24T05:51:12.031Z,11.10
2018-04-24T05:53:39.764Z,11.10
2018-04-24T05:56:07.357Z,11.40
2018-04-24T05:58:34.948Z,11.60
2018-04-24T06:01:02.465Z,11.70
2018-04-24T06:03:30.815Z,12.10
2018-04-24T06:05:58.393Z,12.00
2018-04-24T06:08:26.563Z,12.10
2018-04-24T06:10:54.924Z,12.60
2018-04-24T06:13:22.658Z,12.60
2018-04-24T06:15:50.226Z,12.70
2018-04-24T06:18:17.753Z,12.60
2018-04-24T06:20:45.260Z,12.60
2018-04-24T06:23:13.557Z,12.40
2018-04-24T06:25:41.091Z,12.40
2018-04-24T06:28:08.599Z,12.50
2018-04-24T06:30:36.116Z,12.70
2018-04-24T06:33:03.708Z,12.60
2018-04-24T06:35:31.255Z,12.60
2018-04-24T06:37:58.750Z,12.90
2018-04-24T06:40:26.449Z,12.70
2018-04-24T06:42:54.116Z,12.90
2018-04-24T06:45:21.695Z,12.90
2018-04-24T06:47:49.564Z,13.10
2018-04-24T06:50:17.255Z,13.60
2018-04-24T06:52:45.054Z,14.10
2018-04-24T06:55:12.682Z,14.30
2018-04-24T06:57:40.212Z,14.40
2018-04-24T07:00:08.496Z,13.90
2018-04-24T07:02:36.789Z,13.70
2018-04-24T07:05:05.163Z,13.40
2018-04-24T07:07:32.710Z,13.40
2018-04-24T07:10:00.263Z,13.50
2018-04-24T07:12:27.757Z,13.80
2018-04-24T07:14:55.447Z,14.00
2018-04-24T07:17:22.989Z,14.10
2018-04-24T07:19:50.565Z,13.90
2018-04-24T07:22:19.266Z,13.90
2018-04-24T07:24:46.775Z,13.90
2018-04-24T07:27:14.301Z,14.00
2018-04-24T07:29:41.843Z,14.20
2018-04-24T07:32:09.388Z,14.50
2018-04-24T07:34:36.944Z,14.40
2018-04-24T07:37:04.498Z,14.20
2018-04-24T07:39:32.148Z,13.70
2018-04-24T07:41:59.715Z,13.60
2018-04-24T07:44:27.232Z,13.30
2018-04-24T07:46:55.572Z,13.20
2018-04-24T07:49:23.947Z,13.30
2018-04-24T07:51:51.552Z,13.30
2018-04-24T07:54:19.182Z,13.30
2018-04-24T07:56:47.522Z,13.50
2018-04-24T07:59:15.082Z,13.50
2018-04-24T08:01:42.606Z,13.50
2018-04-24T08:04:10.148Z,13.30
2018-04-24T08:06:37.675Z,13.20
2018-04-24T08:09:07.025Z,13.10
2018-04-24T08:11:34.549Z,13.00
2018-04-24T08:14:02.822Z,13.00
2018-04-24T08:16:30.403Z,13.00
2018-04-24T08:18:57.945Z,13.00
2018-04-24T08:21:33.315Z,13.30
2018-04-24T08:24:00.926Z,13.30
2018-04-24T08:26:28.475Z,13.30
2018-04-24T08:28:56.045Z,13.00
2018-04-24T08:31:23.568Z,12.80
2018-04-24T08:33:51.281Z,12.70
2018-04-24T08:36:18.793Z,12.70
2018-04-24T08:38:46.344Z,12.70
2018-04-24T08:41:14.616Z,12.60
2018-04-24T08:43:42.295Z,12.60
2018-04-24T08:46:10.577Z,12.40
2018-04-24T08:48:38.264Z,12.40
2018-04-24T08:51:06.546Z,12.00
2018-04-24T08:53:34.076Z,11.90
2018-04-24T08:56:01.576Z,12.00
2018-04-24T08:58:29.105Z,12.10
2018-04-24T09:00:56.605Z,12.00
2018-04-24T09:03:24.155Z,12.20
2018-04-24T09:05:51.683Z,12.20
2018-04-24T09:08:19.964Z,11.90
2018-04-24T09:10:47.622Z,11.90
2018-04-24T09:13:15.373Z,12.10
2018-04-24T09:15:42.989Z,12.20
2018-04-24T09:18:10.532Z,12.30
2018-04-24T09:20:38.093Z,12.20
2018-04-24T09:23:05.673Z,12.30
2018-04-24T09:25:33.165Z,12.20
2018-04-24T09:28:00.705Z,12.30
2018-04-24T09:30:28.241Z,12.30
2018-04-24T09:32:55.790Z,12.70
2018-04-24T09:35:28.024Z,13.20
2018-04-24T09:37:55.581Z,13.20
2018-04-24T09:40:23.099Z,13.10
2018-04-24T09:42:50.655Z,13.30
2018-04-24T09:45:18.237Z,13.30
2018-04-24T09:47:45.785Z,13.50
2018-04-24T09:50:13.283Z,13.60
2018-04-24T09:52:40.815Z,13.80
2018-04-24T09:55:08.362Z,13.90
2018-04-24T09:57:35.894Z,14.30
2018-04-24T10:00:03.406Z,14.30
2018-04-24T10:02:30.936Z,14.30
2018-04-24T10:04:58.453Z,13.90
2018-04-24T10:07:26.027Z,14.00
2018-04-24T10:09:53.540Z,14.10
2018-04-24T10:12:21.033Z,14.30
2018-04-24T10:14:48.571Z,14.40
2018-04-24T10:17:16.440Z,14.20
2018-04-24T10:19:44.041Z,14.00
2018-04-24T10:22:11.512Z,14.30
2018-04-24T10:24:39.111Z,14.90
2018-04-24T10:27:07.670Z,15.40
2018-04-24T10:29:35.644Z,15.40
2018-04-24T10:32:03.198Z,15.20
2018-04-24T10:34:30.724Z,15.00
2018-04-24T10:36:58.317Z,14.80
2018-04-24T10:39:26.619Z,15.00
2018-04-24T10:41:54.186Z,15.00
2018-04-24T10:44:21.712Z,14.90
2018-04-24T10:46:49.342Z,14.90
2018-04-24T10:49:16.881Z,14.70
2018-04-24T10:51:45.298Z,14.40
2018-04-24T10:54:12.748Z,14.40
2018-04-24T10:56:41.044Z,14.80
2018-04-24T10:59:09.443Z,14.70
2018-04-24T11:01:36.969Z,14.60
2018-04-24T11:04:04.492Z,14.70
2018-04-24T11:06:32.112Z,14.90
2018-04-24T11:08:59.647Z,15.00
2018-04-24T11:11:27.160Z,14.90
2018-04-24T11:13:55.467Z,15.10
2018-04-24T11:16:23.790Z,15.30
2018-04-24T11:18:51.338Z,15.30
2018-04-24T11:21:19.610Z,16.00
2018-04-24T11:23:47.153Z,15.90
2018-04-24T11:26:14.688Z,16.10
2018-04-24T11:28:42.221Z,16.20
2018-04-24T11:31:09.761Z,16.00
2018-04-24T11:33:37.472Z,16.10
2018-04-24T11:36:05.085Z,16.20
2018-04-24T11:38:32.626Z,16.20
2018-04-24T11:41:00.137Z,16.00
2018-04-24T11:43:27.908Z,15.90
2018-04-24T11:45:55.480Z,15.90
2018-04-24T11:48:23.008Z,16.20
2018-04-24T11:50:50.547Z,16.00
2018-04-24T11:53:18.049Z,16.10
2018-04-24T11:55:45.680Z,16.10
2018-04-24T11:58:13.216Z,16.10
2018-04-24T12:00:41.933Z,15.90
2018-04-24T12:03:09.459Z,15.90
2018-04-24T12:05:36.988Z,16.10
2018-04-24T12:08:04.516Z,16.10
2018-04-24T12:10:32.054Z,15.90
2018-04-24T12:12:59.565Z,16.10
2018-04-24T12:15:27.866Z,16.40
2018-04-24T12:17:55.360Z,16.40
2018-04-24T12:20:23.012Z,16.70
2018-04-24T12:22:50.514Z,16.70
2018-04-24T12:25:18.167Z,17.10
2018-04-24T12:27:45.685Z,17.10
2018-04-24T12:30:13.221Z,17.00
2018-04-24T12:32:40.805Z,17.40
2018-04-24T12:35:08.365Z,17.30
2018-04-24T12:37:35.904Z,17.40
2018-04-24T12:40:04.227Z,18.00
2018-04-24T12:42:31.756Z,18.00
2018-04-24T12:44:59.455Z,17.30
2018-04-24T12:47:26.968Z,17.40
2018-04-24T12:49:54.512Z,17.20
2018-04-24T12:52:22.032Z,17.40
2018-04-24T12:54:49.645Z,17.70
2018-04-24T12:57:17.228Z,17.60
2018-04-24T12:59:44.811Z,17.80
2018-04-24T13:02:12.339Z,17.70
2018-04-24T13:04:40.702Z,18.30
2018-04-24T13:07:08.200Z,18.30
2018-04-24T13:09:36.464Z,19.00
2018-04-24T13:12:03.992Z,18.90
2018-04-24T13:14:31.504Z,19.30
2018-04-24T13:16:59.057Z,19.30
2018-04-24T13:19:26.575Z,19.40
2018-04-24T13:21:55.167Z,19.80
2018-04-24T13:24:23.455Z,19.80
2018-04-24T13:26:51.812Z,20.20
2018-04-24T13:29:19.325Z,20.20
2018-04-24T13:31:47.635Z,19.50
2018-04-24T13:34:15.201Z,19.40
2018-04-24T13:36:42.777Z,19.70
2018-04-24T13:39:10.339Z,19.80
2018-04-24T13:41:38.629Z,20.20
2018-04-24T13:44:06.903Z,20.10
2018-04-24T13:46:34.459Z,20.00
2018-04-24T13:49:02.148Z,20.30
2018-04-24T13:51:29.696Z,19.70
2018-04-24T13:53:57.242Z,20.00
2018-04-24T13:56:25.539Z,20.20
2018-04-24T13:58:53.155Z,20.10
2018-04-24T14:01:20.654Z,19.50
2018-04-24T14:03:48.172Z,20.10
2018-04-24T14:06:16.188Z,20.10
2018-04-24T14:08:43.656Z,20.00
2018-04-24T14:11:11.947Z,19.80
2018-04-24T14:13:40.232Z,19.80
2018-04-24T14:16:08.520Z,19.50
2018-04-24T14:18:36.927Z,19.90
2018-04-24T14:21:04.476Z,19.80
2018-04-24T14:23:32.287Z,19.80
2018-04-24T14:25:59.963Z,19.60
2018-04-24T14:28:27.560Z,19.50
2018-04-24T14:30:55.291Z,19.50
2018-04-24T14:33:22.845Z,19.60
2018-04-24T14:35:50.701Z,20.00
2018-04-24T14:38:18.357Z,19.80
2018-04-24T14:40:45.951Z,19.50
2018-04-24T14:43:13.569Z,19.60
2018-04-24T14:45:41.893Z,19.30
2018-04-24T14:48:09.418Z,19.30
2018-04-24T14:50:37.693Z,19.40
2018-04-24T14:53:06.027Z,19.70
2018-04-24T14:55:33.702Z,19.60
2018-04-24T14:58:01.268Z,19.40
2018-04-24T15:00:28.815Z,19.40
2018-04-24T15:02:57.188Z,19.20
2018-04-24T15:05:24.938Z,19.20
2018-04-24T15:07:52.499Z,19.20
2018-04-24T15:10:20.113Z,19.30
2018-04-24T15:12:47.990Z,19.50
2018-04-24T15:15:15.523Z,19.70
2018-04-24T15:17:43.079Z,19.20
2018-04-24T15:20:10.652Z,18.90
2018-04-24T15:22:38.308Z,18.90
2018-04-24T15:25:06.648Z,18.90
2018-04-24T15:27:34.212Z,18.90
2018-04-24T15:30:01.796Z,19.10
2018-04-24T15:32:29.458Z,19.40
2018-04-24T15:34:57.195Z,19.30
2018-04-24T15:37:25.493Z,19.30
2018-04-24T15:39:53.369Z,19.30
2018-04-24T15:42:20.909Z,18.90
2018-04-24T15:44:48.519Z,18.60
2018-04-24T15:47:16.039Z,18.40
2018-04-24T15:49:44.460Z,18.00
2018-04-24T15:52:12.969Z,18.20
2018-04-24T15:54:40.531Z,18.20
2018-04-24T15:57:08.839Z,18.40
2018-04-24T15:59:36.435Z,18.40
2018-04-24T16:02:04.067Z,18.60
2018-04-24T16:04:32.368Z,19.00
2018-04-24T16:06:59.958Z,19.00
2018-04-24T16:09:27.587Z,18.60
2018-04-24T16:11:55.158Z,18.50
2018-04-24T16:14:23.373Z,18.30
2018-04-24T16:16:50.980Z,18.20
2018-04-24T16:19:18.865Z,18.00
2018-04-24T16:21:46.419Z,17.70
2018-04-24T16:24:14.166Z,17.40
2018-04-24T16:26:41.768Z,17.30
2018-04-24T16:29:09.696Z,17.30
2018-04-24T16:31:37.450Z,17.40
2018-04-24T16:34:05.381Z,17.50
2018-04-24T16:36:34.022Z,17.60
2018-04-24T16:39:01.675Z,17.60
2018-04-24T16:41:29.250Z,17.60
2018-04-24T16:43:56.785Z,17.70
2018-04-24T16:46:25.238Z,17.40
2018-04-24T16:48:52.781Z,17.30
2018-04-24T16:51:20.315Z,17.50
2018-04-24T16:53:48.286Z,17.70
2018-04-24T16:56:16.011Z,17.70
2018-04-24T16:58:43.669Z,17.70
2018-04-24T17:01:12.553Z,17.60
2018-04-24T17:03:41.287Z,17.50
2018-04-24T17:06:08.978Z,17.50
2018-04-24T17:08:36.508Z,17.50
2018-04-24T17:11:05.098Z,17.40
2018-04-24T17:13:33.584Z,17.50
2018-04-24T17:16:01.162Z,17.40
2018-04-24T17:18:29.059Z,17.50
2018-04-24T17:20:57.041Z,17.40
2018-04-24T17:23:24.790Z,17.20
2018-04-24T17:25:52.902Z,17.10
2018-04-24T17:28:20.618Z,17.00
2018-04-24T17:30:48.203Z,16.90
2018-04-24T17:33:15.769Z,16.90
2018-04-24T17:35:43.704Z,16.90
2018-04-24T17:38:11.258Z,16.90
2018-04-24T17:40:39.559Z,16.70
2018-04-24T17:43:07.833Z,16.60
2018-04-24T17:45:36.184Z,16.60
2018-04-24T17:48:03.748Z,16.60
2018-04-24T17:50:31.296Z,16.60
2018-04-24T17:53:00.750Z,16.60
2018-04-24T17:55:28.444Z,16.50
2018-04-24T17:57:56.159Z,16.40
2018-04-24T18:00:23.785Z,16.40
2018-04-24T18:02:51.345Z,16.30
2018-04-24T18:05:18.897Z,16.30
2018-04-24T18:07:46.446Z,16.20
2018-04-24T18:10:14.157Z,16.20
2018-04-24T18:12:41.716Z,16.10
2018-04-24T18:15:09.235Z,16.00
2018-04-24T18:17:36.873Z,15.90
2018-04-24T18:20:04.656Z,15.90
2018-04-24T18:22:32.219Z,15.80
2018-04-24T18:24:59.728Z,15.80
2018-04-24T18:27:27.247Z,15.80
2018-04-24T18:29:54.751Z,15.70
2018-04-24T18:32:22.280Z,15.60
2018-04-24T18:34:49.788Z,15.60
2018-04-24T18:37:17.309Z,15.60
2018-04-24T18:39:45.783Z,15.60
2018-04-24T18:42:13.402Z,15.60
2018-04-24T18:44:40.908Z,15.60
2018-04-24T18:47:08.574Z,15.50
2018-04-24T18:49:36.139Z,15.40
2018-04-24T18:52:03.907Z,15.40
2018-04-24T18:54:32.169Z,15.40
2018-04-24T18:56:59.669Z,15.40
2018-04-24T18:59:27.227Z,15.30
2018-04-24T19:01:54.712Z,15.30
2018-04-24T19:04:22.237Z,15.30
2018-04-24T19:06:50.507Z,15.30
2018-04-24T19:09:18.043Z,15.30
2018-04-24T19:11:45.550Z,15.30
2018-04-24T19:14:18.840Z,15.30
2018-04-24T19:16:46.359Z,15.30
2018-04-24T19:19:19.517Z,15.20
2018-04-24T19:21:47.027Z,15.20
2018-04-24T19:27:14.316Z,15.10
2018-04-24T19:29:42.600Z,15.10
2018-04-24T19:32:16.508Z,15.00
2018-04-24T19:34:44.054Z,15.00
2018-04-24T19:37:11.561Z,15.00
2018-04-24T19:39:45.486Z,15.00
2018-04-24T19:42:13.811Z,15.00
2018-04-24T19:44:41.337Z,15.00
2018-04-24T19:47:08.872Z,15.00
2018-04-24T19:49:42.093Z,15.00
2018-04-24T19:52:09.602Z,15.00
2018-04-24T19:54:37.895Z,15.00
2018-04-24T19:57:06.173Z,14.90
2018-04-24T19:59:34.456Z,14.90
2018-04-24T20:02:01.972Z,14.90
2018-04-24T20:04:29.578Z,14.90
2018-04-24T20:06:57.137Z,14.90
2018-04-24T20:09:24.668Z,14.90
2018-04-24T20:11:52.197Z,15.00
2018-04-24T20:14:19.715Z,15.00
2018-04-24T20:16:47.716Z,15.00
2018-04-24T20:19:15.228Z,15.00
2018-04-24T20:21:42.848Z,15.00
2018-04-24T20:24:10.375Z,15.00
2018-04-24T20:26:37.923Z,15.00
2018-04-24T20:29:05.439Z,15.00
2018-04-24T20:31:33.812Z,15.00
2018-04-24T20:34:01.324Z,14.90
2018-04-24T20:36:28.852Z,14.90
2018-04-24T20:38:56.411Z,15.00
2018-04-24T20:41:23.952Z,14.90
2018-04-24T20:43:51.632Z,15.00
2018-04-24T20:46:19.162Z,14.90
2018-04-24T20:48:47.457Z,14.90
2018-04-24T20:51:15.782Z,14.90
2018-04-24T20:53:43.335Z,14.90
2018-04-24T20:56:10.867Z,14.90
2018-04-24T20:58:38.394Z,14.90
2018-04-24T21:01:05.926Z,14.90
2018-04-24T21:03:34.229Z,15.00
2018-04-24T21:06:02.544Z,15.00
2018-04-24T21:08:30.070Z,15.00
2018-04-24T21:10:57.624Z,15.00
2018-04-24T21:13:25.153Z,15.00
2018-04-24T21:15:52.655Z,14.90
2018-04-24T21:18:20.200Z,14.90
2018-04-24T21:20:47.758Z,14.90
2018-04-24T21:23:15.495Z,14.90
2018-04-24T21:25:43.000Z,14.90
2018-04-24T21:28:10.542Z,14.90
2018-04-24T21:30:38.081Z,14.90
2018-04-24T21:33:05.620Z,14.90
2018-04-24T21:35:33.133Z,14.80
2018-04-24T21:38:00.661Z,14.80
2018-04-24T21:40:28.205Z,14.80
2018-04-24T21:42:56.559Z,14.80
2018-04-24T21:45:24.176Z,14.70
2018-04-24T21:47:52.466Z,14.70
2018-04-24T21:50:20.806Z,14.70
2018-04-24T21:52:48.340Z,14.70
2018-04-24T21:55:16.637Z,14.70
2018-04-24T21:57:44.215Z,14.70
2018-04-24T22:00:18.588Z,14.70
2018-04-24T22:02:46.112Z,14.70
2018-04-24T22:05:13.659Z,14.70
2018-04-24T22:07:41.180Z,14.70
2018-04-24T22:10:08.749Z,14.80
2018-04-24T22:12:36.286Z,14.80
2018-04-24T22:15:04.600Z,14.80
2018-04-24T22:17:32.137Z,14.80
2018-04-24T22:20:00.405Z,14.80
2018-04-24T22:22:27.953Z,14.80
2018-04-24T22:24:56.242Z,14.90
2018-04-24T22:27:23.842Z,14.80
2018-04-24T22:29:52.868Z,14.90
2018-04-24T22:32:21.186Z,14.90
2018-04-24T22:34:48.692Z,14.90
2018-04-24T22:37:16.246Z,14.90
2018-04-24T22:39:43.765Z,15.00
2018-04-24T22:42:11.298Z,15.00
2018-04-24T22:44:38.839Z,15.00
2018-04-24T22:47:06.347Z,15.00
2018-04-24T22:49:33.917Z,15.00
2018-04-24T22:52:01.429Z,15.00
2018-04-24T22:54:29.777Z,15.00
2018-04-24T22:56:57.310Z,15.00
2018-04-24T22:59:24.866Z,15.00
2018-04-24T23:01:53.132Z,15.00
2018-04-24T23:04:20.660Z,15.00
2018-04-24T23:06:48.185Z,15.00
2018-04-24T23:09:15.702Z,14.90
2018-04-24T23:11:55.070Z,14.90
2018-04-24T23:14:34.516Z,14.90
2018-04-24T23:17:13.976Z,14.90
2018-04-24T23:19:53.278Z,14.90
2018-04-24T23:22:29.355Z,14.90
2018-04-24T23:24:56.891Z,14.90
2018-04-24T23:27:24.392Z,14.90
2018-04-24T23:29:52.732Z,14.80
2018-04-24T23:32:20.285Z,14.70
2018-04-24T23:34:47.853Z,14.80
2018-04-24T23:37:15.435Z,14.80
2018-04-24T23:39:42.964Z,14.80
2018-04-24T23:42:11.240Z,14.70
2018-04-24T23:44:38.795Z,14.70
2018-04-24T23:47:06.440Z,14.70
2018-04-24T23:49:34.005Z,14.70
2018-04-24T23:52:01.542Z,14.70
2018-04-24T23:54:29.850Z,14.70
2018-04-24T23:56:57.370Z,14.70
2018-04-24T23:59:24.942Z,14.80
